This is the latest recevied weather packets stored in our database for station/object OH5GWF-1. If no packets are shown the sender has not sent any weather packets the latest 10 day(s).
| Time | Temp. | Humidity | Pressure | Rain* | Wind** | Luminosity | Snow |
|---|---|---|---|---|---|---|---|
| 1787399337 | 21.67° C | 86% | 1006.2 hPa | 0 mm | - | - | - |
| 1787398913 | 21.67° C | 86% | 1006.3 hPa | 0 mm | - | - | - |
| 1787398491 | 21.67° C | 85% | 1006.3 hPa | 0 mm | - | - | - |
| 1787398070 | 22.22° C | 84% | 1006.5 hPa | 0 mm | - | - | - |
| 1787397648 | 22.78° C | 84% | 1006.5 hPa | 0 mm | - | - | - |
| 1787397238 | 22.78° C | 82% | 1006.5 hPa | 0 mm | - | - | - |
| 1787396815 | 23.33° C | 82% | 1006.6 hPa | 0 mm | - | - | - |
| 1787396394 | 23.33° C | 84% | 1006.7 hPa | 0 mm | - | - | - |
| 1787395970 | 22.22° C | 85% | 1006.6 hPa | 0 mm | - | - | - |
| 1787395548 | 22.22° C | 86% | 1006.6 hPa | 0 mm | - | - | - |
| 1787395138 | 22.22° C | 88% | 1006.8 hPa | 0 mm | - | - | - |
| 1787394715 | 21.11° C | 89% | 1006.8 hPa | 0 mm | - | - | - |
| 1787394294 | 21.11° C | 89% | 1007 hPa | 0 mm | - | - | - |
| 1787393873 | 21.11° C | 89% | 1007 hPa | 0 mm | - | - | - |
| 1787393450 | 21.11° C | 88% | 1007.1 hPa | 0 mm | - | - | - |
| 1787393029 | 21.67° C | 89% | 1007.2 hPa | 0 mm | - | - | - |
| 1787392618 | 21.67° C | 88% | 1007.3 hPa | 0 mm | - | - | - |
| 1787392197 | 21.67° C | 89% | 1007.4 hPa | 0 mm | - | - | - |
| 1787391774 | 22.22° C | 88% | 1007.6 hPa | 0 mm | - | - | - |
| 1787391353 | 22.22° C | 89% | 1007.6 hPa | 0 mm | - | - | - |
| 1787390931 | 21.67° C | 89% | 1007.8 hPa | 0 mm | - | - | - |
| 1787390508 | 22.22° C | 88% | 1007.8 hPa | 0 mm | - | - | - |
| 1787390098 | 23.33° C | 86% | 1007.8 hPa | 0 mm | - | - | - |
| 1787389676 | 22.78° C | 90% | 1007.9 hPa | 0 mm | - | - | - |
| 1787389256 | 21.67° C | 92% | 1007.9 hPa | 0 mm | - | - | - |
* Rain latest hour (hover to see other rain measurements)
** Current wind speed in m/s (hover to see current wind gust speed)